Time;durP1;ratioP1;P1;durP2;ratioP2;P2;SDS_P1;SDS_P2;PMS_P1;PMS_P2;Temp;Humidity;BMP_temperature;BMP_pressure;BME280_temperature;BME280_humidity;BME280_pressure;Samples;Min_cycle;Max_cycle;Signal;HPM_P1;HPM_P2
2023/04/07 00:01:30;;;;;;;27.95;25.05;;;7.50;99.90;;;;;;5107745;22;20437;-66
2023/04/07 00:03:56;;;;;;;28.27;25.27;;;7.50;99.90;;;;;;5081468;28;20433;-66
2023/04/07 00:06:23;;;;;;;28.58;25.67;;;7.50;99.90;;;;;;5086848;28;20782;-68
2023/04/07 00:08:50;;;;;;;27.47;24.60;;;7.50;99.90;;;;;;5088999;28;20489;-67
2023/04/07 00:11:18;;;;;;;27.60;24.85;;;7.50;99.90;;;;;;5090992;28;20425;-68
2023/04/07 00:13:45;;;;;;;27.98;25.10;;;7.50;99.90;;;;;;5087990;28;20428;-68
2023/04/07 00:16:12;;;;;;;28.40;25.38;;;7.40;99.90;;;;;;5090286;28;20432;-67
2023/04/07 00:18:38;;;;;;;28.85;25.95;;;7.50;99.90;;;;;;5090604;28;20916;-68
2023/04/07 00:21:05;;;;;;;28.55;25.65;;;7.50;99.90;;;;;;5092957;28;20916;-67
2023/04/07 00:23:32;;;;;;;27.10;24.40;;;7.50;99.90;;;;;;5097131;28;20414;-67
2023/04/07 00:25:59;;;;;;;27.50;24.70;;;7.50;99.90;;;;;;5092844;28;20819;-68
2023/04/07 00:28:27;;;;;;;28.40;25.40;;;7.50;99.90;;;;;;5090007;28;20429;-67
2023/04/07 00:30:54;;;;;;;29.50;26.30;;;7.50;99.90;;;;;;5086425;28;20425;-67
2023/04/07 00:33:21;;;;;;;32.15;27.30;;;7.50;99.90;;;;;;5095024;28;20417;-68
2023/04/07 00:35:48;;;;;;;30.48;27.17;;;7.50;99.90;;;;;;5087169;28;20433;-68
2023/04/07 00:38:15;;;;;;;30.58;27.27;;;7.50;99.90;;;;;;5090930;28;20456;-69
2023/04/07 00:40:41;;;;;;;31.20;27.80;;;7.50;99.90;;;;;;5101430;28;20485;-67
2023/04/07 00:43:08;;;;;;;31.17;27.35;;;7.50;99.90;;;;;;5088673;28;20417;-68
2023/04/07 00:45:37;;;;;;;34.63;28.65;;;7.50;99.90;;;;;;5085902;28;20433;-65
2023/04/07 00:48:04;;;;;;;36.22;29.23;;;7.60;99.90;;;;;;5088893;28;20430;-67
2023/04/07 00:50:31;;;;;;;35.40;30.17;;;7.60;99.90;;;;;;5085428;28;20430;-66
2023/04/07 00:52:58;;;;;;;36.42;30.60;;;7.60;99.90;;;;;;5087899;28;20500;-67
2023/04/07 00:55:25;;;;;;;34.20;29.27;;;7.70;99.90;;;;;;5091402;28;20423;-67
2023/04/07 00:57:51;;;;;;;32.75;28.90;;;7.70;99.90;;;;;;5095491;28;20431;-68
2023/04/07 01:00:18;;;;;;;33.13;29.63;;;7.70;99.90;;;;;;5085950;28;20418;-67
2023/04/07 01:02:56;;;;;;;35.55;29.15;;;7.70;99.90;;;;;;5086832;28;20422;-67
2023/04/07 01:05:30;;;;;;;36.40;29.77;;;7.70;99.90;;;;;;5086569;28;20810;-67
2023/04/07 01:08:02;;;;;;;35.88;30.55;;;7.70;99.90;;;;;;5087374;28;20450;-67
2023/04/07 01:10:37;;;;;;;36.42;30.48;;;7.70;99.90;;;;;;5090888;28;20530;-67
2023/04/07 01:13:09;;;;;;;37.60;31.00;;;7.70;99.90;;;;;;5089005;28;20427;-67
2023/04/07 01:15:38;;;;;;;35.90;30.77;;;7.70;99.90;;;;;;5088754;28;20423;-67
2023/04/07 01:18:12;;;;;;;35.58;29.73;;;7.70;99.90;;;;;;5086736;28;20744;-67
2023/04/07 01:20:41;;;;;;;36.47;29.47;;;7.80;99.90;;;;;;5085448;28;20415;-67
2023/04/07 01:23:08;;;;;;;40.75;30.60;;;7.70;99.90;;;;;;5090306;28;20420;-68
2023/04/07 01:26:00;;;;;;;37.65;31.60;;;7.80;99.90;;;;;;5094686;28;20778;-67
2023/04/07 01:28:41;;;;;;;39.50;31.87;;;7.80;99.90;;;;;;5085679;28;20484;-67
2023/04/07 01:31:10;;;;;;;38.55;30.65;;;7.80;99.90;;;;;;5088670;28;20417;-68
2023/04/07 01:33:38;;;;;;;37.30;31.43;;;7.80;99.90;;;;;;5093158;28;20522;-67
2023/04/07 01:36:07;;;;;;;37.72;31.35;;;7.80;99.90;;;;;;5086904;28;20908;-66
2023/04/07 01:38:34;;;;;;;37.38;30.17;;;7.80;99.90;;;;;;5090516;28;20517;-67
2023/04/07 01:41:03;;;;;;;34.17;29.40;;;7.90;99.90;;;;;;5087015;28;20422;-67
2023/04/07 01:43:31;;;;;;;34.58;28.38;;;7.90;99.90;;;;;;5086487;28;20897;-67
2023/04/07 01:45:58;;;;;;;35.37;29.83;;;7.90;99.90;;;;;;5088951;28;20904;-67
2023/04/07 01:48:27;;;;;;;38.42;30.17;;;7.80;99.90;;;;;;5086519;28;20428;-67
2023/04/07 01:50:55;;;;;;;37.10;29.83;;;7.80;99.90;;;;;;5086004;28;20415;-68
2023/04/07 01:53:23;;;;;;;36.40;30.33;;;7.80;99.90;;;;;;5084713;28;20399;-67
2023/04/07 01:55:52;;;;;;;35.25;30.30;;;7.90;99.90;;;;;;5085977;28;20448;-67
2023/04/07 01:58:19;;;;;;;34.88;29.73;;;7.90;99.90;;;;;;5089407;28;20612;-68
2023/04/07 02:00:46;;;;;;;36.40;29.90;;;7.90;99.90;;;;;;5085974;28;20794;-67
2023/04/07 02:03:20;;;;;;;39.13;30.20;;;7.90;99.90;;;;;;5076654;28;20423;-68
2023/04/07 02:05:52;;;;;;;36.47;29.60;;;7.90;99.90;;;;;;5090816;28;20997;-68
2023/04/07 02:08:21;;;;;;;36.22;29.50;;;7.90;99.90;;;;;;5089478;28;20462;-67
2023/04/07 02:10:49;;;;;;;39.23;30.40;;;8.00;99.90;;;;;;5085719;28;20427;-67
2023/04/07 02:13:19;;;;;;;39.92;31.15;;;8.00;99.90;;;;;;5085962;28;20803;-66
2023/04/07 02:15:46;;;;;;;36.97;30.42;;;8.00;99.90;;;;;;5081764;28;20415;-67
2023/04/07 02:18:15;;;;;;;39.92;32.75;;;8.00;99.90;;;;;;5088871;28;20431;-66
2023/04/07 02:20:43;;;;;;;42.08;31.45;;;8.00;99.90;;;;;;5090387;28;20433;-67
2023/04/07 02:23:12;;;;;;;39.00;32.10;;;8.10;99.90;;;;;;5090368;28;20423;-67
2023/04/07 02:25:39;;;;;;;44.15;32.95;;;8.10;99.90;;;;;;5090843;28;20417;-66
2023/04/07 02:28:06;;;;;;;47.08;33.78;;;8.10;99.90;;;;;;5089683;28;20633;-66
2023/04/07 02:30:35;;;;;;;45.65;35.08;;;8.10;99.90;;;;;;5089572;28;20434;-67
2023/04/07 02:33:02;;;;;;;48.13;35.45;;;8.10;99.90;;;;;;5092974;28;20435;-67
2023/04/07 02:35:28;;;;;;;46.08;33.97;;;8.20;99.90;;;;;;5095561;28;20413;-67
2023/04/07 02:37:55;;;;;;;54.20;37.03;;;8.20;99.90;;;;;;5090493;28;20433;-69
2023/04/07 02:40:23;;;;;;;49.38;36.17;;;8.20;99.90;;;;;;5088834;28;20421;-68
2023/04/07 02:42:50;;;;;;;53.80;36.90;;;8.20;99.90;;;;;;5089597;28;20411;-67
2023/04/07 02:45:17;;;;;;;54.00;38.03;;;8.30;99.90;;;;;;5091512;28;20428;-67
2023/04/07 02:47:43;;;;;;;58.08;38.13;;;8.20;99.90;;;;;;5091095;28;20424;-67
2023/04/07 02:50:11;;;;;;;59.28;39.00;;;8.30;99.90;;;;;;5088939;28;20432;-67
2023/04/07 02:52:37;;;;;;;56.83;38.55;;;8.30;99.90;;;;;;5089342;28;20438;-68
2023/04/07 02:55:06;;;;;;;55.78;37.60;;;8.30;99.90;;;;;;5093386;28;20432;-67
2023/04/07 02:57:34;;;;;;;56.92;37.60;;;8.30;99.90;;;;;;5093136;28;20503;-67
2023/04/07 03:00:00;;;;;;;56.72;37.25;;;8.30;99.90;;;;;;5087735;28;20993;-68
2023/04/07 03:02:27;;;;;;;52.08;35.65;;;8.30;99.90;;;;;;5086034;28;20755;-67
2023/04/07 03:04:54;;;;;;;55.10;36.45;;;8.30;99.90;;;;;;5089610;28;20445;-68
2023/04/07 03:07:21;;;;;;;53.90;35.25;;;8.30;99.90;;;;;;5095724;28;20415;-67
2023/04/07 03:09:47;;;;;;;57.10;37.95;;;8.30;99.90;;;;;;5087518;28;20739;-67
2023/04/07 03:12:14;;;;;;;61.75;37.40;;;8.30;99.90;;;;;;5088158;28;20424;-67
2023/04/07 03:14:42;;;;;;;55.85;37.70;;;8.30;99.90;;;;;;5088738;28;20501;-68
2023/04/07 03:17:09;;;;;;;59.53;37.47;;;8.30;99.90;;;;;;5090487;28;20421;-67
2023/04/07 03:19:36;;;;;;;63.20;37.00;;;8.30;99.90;;;;;;5091418;28;20417;-67
2023/04/07 03:22:02;;;;;;;59.77;37.83;;;8.30;99.90;;;;;;5088379;28;20526;-67
2023/04/07 03:24:29;;;;;;;60.50;37.35;;;8.30;99.90;;;;;;5093041;28;20417;-67
2023/04/07 03:26:56;;;;;;;62.33;38.58;;;8.30;99.90;;;;;;5090475;28;20426;-67
2023/04/07 03:29:23;;;;;;;57.78;36.95;;;8.30;99.90;;;;;;5088775;28;20935;-66
2023/04/07 03:31:51;;;;;;;60.30;38.03;;;8.30;99.90;;;;;;5088171;28;20810;-66
2023/04/07 03:34:17;;;;;;;60.95;37.08;;;8.30;99.90;;;;;;5096530;28;20438;-67
2023/04/07 03:36:44;;;;;;;55.72;36.05;;;8.20;99.90;;;;;;5089134;28;20422;-67
2023/04/07 03:39:11;;;;;;;61.08;37.92;;;8.30;99.90;;;;;;5089566;28;20426;-67
2023/04/07 03:41:38;;;;;;;60.53;38.33;;;8.20;99.90;;;;;;5088603;28;20433;-67
2023/04/07 03:44:05;;;;;;;61.72;39.35;;;8.20;99.90;;;;;;5088180;28;20434;-67
2023/04/07 03:46:32;;;;;;;59.88;37.83;;;8.20;99.90;;;;;;5087743;28;20420;-67
2023/04/07 03:49:01;;;;;;;66.55;38.10;;;8.20;99.90;;;;;;5089475;28;20500;-67
2023/04/07 03:51:27;;;;;;;60.58;37.20;;;8.20;99.90;;;;;;5089432;28;20483;-67
2023/04/07 03:53:54;;;;;;;63.50;38.20;;;8.20;99.90;;;;;;5092450;28;20426;-66
2023/04/07 03:56:21;;;;;;;58.75;37.35;;;8.20;99.90;;;;;;5089744;28;20419;-67
2023/04/07 03:58:48;;;;;;;54.15;36.03;;;8.20;99.90;;;;;;5090816;28;20431;-66
2023/04/07 04:01:15;;;;;;;54.95;36.08;;;8.20;99.90;;;;;;5087987;28;20430;-67
2023/04/07 04:03:41;;;;;;;54.95;36.47;;;8.20;99.90;;;;;;5093756;28;20433;-67
2023/04/07 04:06:09;;;;;;;58.37;35.60;;;8.20;99.90;;;;;;5092537;28;20426;-67
2023/04/07 04:08:36;;;;;;;53.45;35.22;;;8.20;99.90;;;;;;5090949;28;20418;-67
2023/04/07 04:11:03;;;;;;;46.20;32.92;;;8.10;99.90;;;;;;5089410;28;20408;-67
2023/04/07 04:13:29;;;;;;;51.92;34.35;;;8.10;99.90;;;;;;5086882;28;20411;-67
2023/04/07 04:15:56;;;;;;;50.27;33.93;;;8.10;99.90;;;;;;5090932;28;20794;-66
2023/04/07 04:18:23;;;;;;;53.47;33.50;;;8.10;99.90;;;;;;5087053;28;20420;-66
2023/04/07 04:20:50;;;;;;;48.58;32.65;;;8.00;99.90;;;;;;5092376;28;20433;-68
2023/04/07 04:23:18;;;;;;;50.25;33.70;;;8.00;99.90;;;;;;5087960;28;20900;-69
2023/04/07 04:25:44;;;;;;;53.45;33.47;;;8.00;99.90;;;;;;5088702;28;20426;-66
2023/04/07 04:28:11;;;;;;;53.43;33.70;;;8.00;99.90;;;;;;5087610;28;20825;-67
2023/04/07 04:30:38;;;;;;;49.17;32.97;;;8.00;99.90;;;;;;5086838;28;20437;-66
2023/04/07 04:33:04;;;;;;;52.10;32.97;;;8.00;99.90;;;;;;5084877;28;20443;-66
2023/04/07 04:35:31;;;;;;;50.55;33.90;;;8.00;99.90;;;;;;5088621;28;20429;-66
2023/04/07 04:37:58;;;;;;;49.00;34.20;;;8.00;99.90;;;;;;5089979;28;20461;-67
2023/04/07 04:40:26;;;;;;;48.33;33.57;;;8.00;99.90;;;;;;5092114;28;20769;-66
2023/04/07 04:42:53;;;;;;;50.63;33.40;;;7.90;99.90;;;;;;5091055;28;20921;-66
2023/04/07 04:45:19;;;;;;;48.83;35.40;;;8.00;99.90;;;;;;5084470;28;20450;-67
2023/04/07 04:47:46;;;;;;;51.13;34.03;;;8.00;99.90;;;;;;5086068;28;20456;-66
2023/04/07 04:50:13;;;;;;;52.17;33.92;;;8.00;99.90;;;;;;5082818;28;20429;-66
2023/04/07 04:52:39;;;;;;;49.33;33.70;;;7.90;99.90;;;;;;5090232;28;20431;-67
2023/04/07 04:55:08;;;;;;;53.45;34.53;;;8.00;99.90;;;;;;5090011;28;20799;-67
2023/04/07 04:57:36;;;;;;;48.03;33.17;;;8.00;99.90;;;;;;5081419;28;20421;-68
2023/04/07 05:00:03;;;;;;;50.03;34.13;;;7.90;99.90;;;;;;5081623;28;20921;-68
2023/04/07 05:02:30;;;;;;;49.20;33.75;;;7.90;99.90;;;;;;5087490;28;20846;-67
2023/04/07 05:04:57;;;;;;;45.38;31.48;;;7.90;99.90;;;;;;5091932;28;20493;-67
2023/04/07 05:07:24;;;;;;;49.67;33.17;;;7.90;99.90;;;;;;5094285;28;20433;-67
2023/04/07 05:09:50;;;;;;;46.75;32.97;;;7.90;99.90;;;;;;5088666;28;20441;-68
2023/04/07 05:12:17;;;;;;;46.97;32.00;;;7.90;99.90;;;;;;5085279;28;20437;-67
2023/04/07 05:14:45;;;;;;;46.45;31.48;;;7.90;99.90;;;;;;5080944;28;20426;-67
2023/04/07 05:17:12;;;;;;;46.47;31.83;;;7.90;99.90;;;;;;5085442;28;20410;-67
2023/04/07 05:19:39;;;;;;;41.05;30.30;;;7.90;99.90;;;;;;5085569;28;20691;-67
2023/04/07 05:22:06;;;;;;;44.22;29.70;;;7.90;99.90;;;;;;5086534;28;20987;-69
2023/04/07 05:24:32;;;;;;;42.70;28.20;;;7.90;99.90;;;;;;5093811;28;20761;-68
2023/04/07 05:27:00;;;;;;;38.58;26.65;;;7.90;99.90;;;;;;5083733;28;20424;-67
2023/04/07 05:29:27;;;;;;;40.57;27.80;;;7.80;99.90;;;;;;5084590;28;20511;-67
2023/04/07 05:31:55;;;;;;;34.05;24.95;;;7.80;99.90;;;;;;5087708;28;20434;-68
2023/04/07 05:34:22;;;;;;;32.63;23.95;;;7.80;99.90;;;;;;5087689;28;20432;-67
2023/04/07 05:36:48;;;;;;;33.40;24.00;;;7.80;99.90;;;;;;5088034;28;20516;-66
2023/04/07 05:39:15;;;;;;;32.30;23.73;;;7.80;99.90;;;;;;5087550;28;20421;-67
2023/04/07 05:41:42;;;;;;;33.30;22.67;;;7.80;99.90;;;;;;5086808;28;20942;-67
2023/04/07 05:44:09;;;;;;;28.65;21.50;;;7.80;99.90;;;;;;5085371;28;20429;-67
2023/04/07 05:46:35;;;;;;;26.00;20.48;;;7.80;99.90;;;;;;5086172;28;20432;-67
2023/04/07 05:49:03;;;;;;;27.90;20.70;;;7.70;99.90;;;;;;5086669;28;20451;-67
2023/04/07 05:51:31;;;;;;;28.33;20.50;;;7.70;99.90;;;;;;5094987;28;20472;-67
2023/04/07 05:54:01;;;;;;;24.50;18.90;;;7.70;99.90;;;;;;5092091;28;20895;-67
2023/04/07 05:56:28;;;;;;;27.40;19.73;;;7.80;99.90;;;;;;5087038;28;20501;-67
2023/04/07 05:58:55;;;;;;;24.55;18.35;;;7.80;99.90;;;;;;5084931;28;20596;-68
2023/04/07 06:03:52;;;;;;;23.67;17.65;;;7.80;99.90;;;;;;5054528;28;20781;-68
2023/04/07 06:06:20;;;;;;;23.08;17.58;;;7.80;99.90;;;;;;5058742;28;20543;-67
2023/04/07 06:08:46;;;;;;;26.23;17.50;;;7.80;99.90;;;;;;5061591;28;20545;-67
2023/04/07 06:11:13;;;;;;;25.40;16.98;;;7.80;99.90;;;;;;5056305;28;20685;-66
2023/04/07 06:13:40;;;;;;;23.20;17.02;;;7.80;99.90;;;;;;5047765;28;20542;-66
2023/04/07 06:16:07;;;;;;;24.65;17.30;;;7.80;99.90;;;;;;5067245;28;20429;-67
2023/04/07 06:18:34;;;;;;;22.93;16.33;;;7.80;99.90;;;;;;5073142;28;20419;-69
2023/04/07 06:21:00;;;;;;;23.77;17.58;;;7.80;99.90;;;;;;5061104;28;20522;-66
2023/04/07 06:23:29;;;;;;;25.00;17.15;;;7.80;99.90;;;;;;5058939;28;20542;-67
2023/04/07 06:25:55;;;;;;;24.15;16.58;;;7.80;99.90;;;;;;5056076;28;20816;-68
2023/04/07 06:28:22;;;;;;;22.75;16.08;;;7.80;99.90;;;;;;5062486;28;20432;-69
2023/04/07 06:30:49;;;;;;;20.40;15.15;;;7.80;99.90;;;;;;5062509;28;20503;-69
2023/04/07 06:33:16;;;;;;;20.30;15.30;;;7.80;99.90;;;;;;5065057;28;20459;-68
2023/04/07 06:35:43;;;;;;;22.10;15.30;;;7.80;99.90;;;;;;5074913;28;20546;-68
2023/04/07 06:38:11;;;;;;;18.48;14.90;;;7.80;99.90;;;;;;5064170;28;20889;-69
2023/04/07 06:40:39;;;;;;;17.50;12.93;;;7.80;99.90;;;;;;5067412;28;20461;-70
2023/04/07 06:43:06;;;;;;;16.65;12.75;;;7.80;99.90;;;;;;5061045;28;20444;-70
2023/04/07 06:45:32;;;;;;;15.70;12.70;;;7.80;99.90;;;;;;5066148;28;20944;-68
2023/04/07 06:47:59;;;;;;;17.10;12.83;;;7.80;99.90;;;;;;5066803;28;20810;-68
2023/04/07 06:50:26;;;;;;;17.83;11.85;;;7.80;99.90;;;;;;5053173;28;20431;-68
2023/04/07 06:52:53;;;;;;;16.30;12.15;;;7.80;99.90;;;;;;5054252;28;20810;-67
2023/04/07 06:55:19;;;;;;;14.13;10.73;;;7.80;99.90;;;;;;5058797;28;20503;-68
2023/04/07 06:57:49;;;;;;;14.32;10.93;;;7.80;99.90;;;;;;5054341;28;20955;-69
2023/04/07 07:00:16;;;;;;;14.60;10.43;;;7.90;99.90;;;;;;5059434;28;20522;-68
2023/04/07 07:02:43;;;;;;;13.07;9.68;;;7.90;99.90;;;;;;5059247;28;20741;-67
2023/04/07 07:05:10;;;;;;;14.98;10.40;;;7.90;99.90;;;;;;5065012;28;20425;-69
2023/04/07 07:07:37;;;;;;;13.05;9.90;;;7.90;99.90;;;;;;5072374;28;20586;-69
2023/04/07 07:10:04;;;;;;;12.52;9.90;;;7.80;99.90;;;;;;5064676;28;20455;-69
2023/04/07 07:12:32;;;;;;;13.25;9.60;;;7.90;99.90;;;;;;5052772;28;20455;-69
2023/04/07 07:15:00;;;;;;;13.95;9.18;;;7.90;99.90;;;;;;5073150;28;20435;-69
2023/04/07 07:17:26;;;;;;;13.88;9.52;;;8.00;99.90;;;;;;5067973;28;20446;-69
2023/04/07 07:19:53;;;;;;;13.53;8.90;;;8.10;99.90;;;;;;5064499;28;20984;-67
2023/04/07 07:22:20;;;;;;;10.35;8.30;;;8.10;99.90;;;;;;5059753;28;20510;-68
2023/04/07 07:24:47;;;;;;;11.45;8.25;;;8.10;99.90;;;;;;5071601;28;20441;-67
2023/04/07 07:27:13;;;;;;;11.40;8.25;;;8.20;99.90;;;;;;5068925;28;20861;-70
2023/04/07 07:29:41;;;;;;;10.82;8.73;;;8.10;99.90;;;;;;5063543;28;20431;-68
2023/04/07 07:32:09;;;;;;;11.10;8.70;;;8.10;99.90;;;;;;5067723;28;20426;-68
2023/04/07 07:34:35;;;;;;;10.90;8.20;;;8.10;99.90;;;;;;5066409;28;20452;-68
2023/04/07 07:37:02;;;;;;;11.27;8.98;;;8.10;99.90;;;;;;5062963;28;20503;-68
2023/04/07 07:39:29;;;;;;;10.50;8.40;;;8.00;99.90;;;;;;5081420;28;20436;-69
2023/04/07 07:41:56;;;;;;;11.80;8.90;;;8.00;99.90;;;;;;5065525;28;20459;-68
2023/04/07 07:44:23;;;;;;;10.30;8.40;;;8.00;99.90;;;;;;5060660;28;20504;-69
2023/04/07 07:46:50;;;;;;;11.02;9.10;;;8.00;99.90;;;;;;5076514;28;20432;-68
2023/04/07 07:49:18;;;;;;;10.60;8.07;;;8.10;99.90;;;;;;5056628;28;20437;-68
2023/04/07 07:51:45;;;;;;;12.82;9.88;;;8.10;99.90;;;;;;5061548;28;20442;-68
2023/04/07 07:54:12;;;;;;;12.30;8.90;;;8.20;99.90;;;;;;5066366;28;20441;-67
2023/04/07 07:56:39;;;;;;;12.95;9.10;;;8.30;99.90;;;;;;5066827;28;20426;-68
2023/04/07 07:59:06;;;;;;;13.18;9.55;;;8.40;99.90;;;;;;5069139;28;20511;-68
2023/04/07 08:01:33;;;;;;;11.48;8.73;;;8.50;99.90;;;;;;5078552;28;20502;-67
2023/04/07 08:04:00;;;;;;;12.30;9.55;;;8.50;99.90;;;;;;5066734;28;20431;-69
2023/04/07 08:06:30;;;;;;;12.27;9.20;;;8.50;99.90;;;;;;5070810;28;20550;-67
2023/04/07 08:08:57;;;;;;;12.98;9.27;;;8.60;99.90;;;;;;5071814;28;20474;-67
2023/04/07 08:11:24;;;;;;;10.70;8.80;;;8.50;99.90;;;;;;5075057;28;20475;-67
2023/04/07 08:13:52;;;;;;;9.75;8.75;;;8.50;99.90;;;;;;5066915;28;20433;-67
2023/04/07 08:16:19;;;;;;;10.05;8.52;;;8.50;99.90;;;;;;5058770;28;20688;-68
2023/04/07 08:18:46;;;;;;;11.70;9.20;;;8.50;99.90;;;;;;5061336;28;20447;-68
2023/04/07 08:21:13;;;;;;;10.93;9.32;;;8.50;99.90;;;;;;5060928;28;20978;-68
2023/04/07 08:23:41;;;;;;;9.93;8.93;;;8.50;99.90;;;;;;5058128;28;20436;-68
2023/04/07 08:26:07;;;;;;;10.93;9.23;;;8.40;99.90;;;;;;5079068;28;20420;-69
2023/04/07 08:28:34;;;;;;;11.15;9.45;;;8.40;99.90;;;;;;5056614;28;20435;-67
2023/04/07 08:31:01;;;;;;;13.25;10.40;;;8.40;99.90;;;;;;5061945;28;21055;-67
2023/04/07 08:33:28;;;;;;;9.90;8.90;;;8.50;99.90;;;;;;5055249;28;20960;-67
2023/04/07 08:35:54;;;;;;;9.80;8.80;;;8.50;99.90;;;;;;5062446;28;20439;-67
2023/04/07 08:38:21;;;;;;;10.00;8.45;;;8.50;99.90;;;;;;5060880;28;20900;-68
2023/04/07 08:40:54;;;;;;;9.70;8.23;;;8.50;99.90;;;;;;5071232;28;20422;-68
2023/04/07 08:43:22;;;;;;;10.27;8.23;;;8.50;99.90;;;;;;5055699;28;20435;-67
2023/04/07 08:45:50;;;;;;;9.05;7.47;;;8.60;99.90;;;;;;5068656;28;20492;-67
2023/04/07 08:48:18;;;;;;;9.30;8.40;;;8.50;99.90;;;;;;5067393;28;20732;-67
2023/04/07 08:50:45;;;;;;;11.20;9.18;;;8.60;99.90;;;;;;5056181;28;20436;-68
2023/04/07 08:53:14;;;;;;;10.27;8.10;;;8.60;99.90;;;;;;5052609;28;20524;-68
2023/04/07 08:55:41;;;;;;;9.33;8.43;;;8.70;99.90;;;;;;5062243;28;20512;-68
2023/04/07 08:58:12;;;;;;;8.00;7.20;;;8.80;99.90;;;;;;5065201;28;20422;-69
2023/04/07 09:00:40;;;;;;;9.30;8.30;;;8.80;99.90;;;;;;5063965;28;20467;-67
2023/04/07 09:03:08;;;;;;;9.50;8.40;;;8.90;99.90;;;;;;5057316;28;20487;-68
2023/04/07 09:05:35;;;;;;;9.07;7.68;;;9.00;99.90;;;;;;5065053;28;20415;-68
2023/04/07 09:08:03;;;;;;;8.73;7.88;;;9.10;99.90;;;;;;5065384;28;20443;-67
2023/04/07 09:10:30;;;;;;;9.55;8.07;;;9.20;99.90;;;;;;5063304;28;20442;-67
2023/04/07 09:12:58;;;;;;;8.90;8.00;;;9.30;99.90;;;;;;5056795;28;20427;-67
2023/04/07 09:15:29;;;;;;;9.65;7.90;;;9.30;99.90;;;;;;5048147;28;20442;-67
2023/04/07 09:17:57;;;;;;;9.35;8.45;;;9.40;99.90;;;;;;5058433;28;20427;-68
2023/04/07 09:20:24;;;;;;;8.53;7.67;;;9.40;99.90;;;;;;5054556;28;20475;-66
2023/04/07 09:22:51;;;;;;;8.82;7.93;;;9.50;99.90;;;;;;5075575;28;20764;-67
2023/04/07 09:25:21;;;;;;;8.00;7.20;;;9.60;99.90;;;;;;5060606;28;20436;-66
2023/04/07 09:27:58;;;;;;;8.40;7.60;;;9.60;99.90;;;;;;5063373;28;20434;-69
2023/04/07 09:30:27;;;;;;;8.90;8.00;;;9.60;99.90;;;;;;5055681;28;20501;-66
2023/04/07 09:32:54;;;;;;;8.70;7.80;;;9.60;99.90;;;;;;5047007;28;20821;-66
2023/04/07 09:35:23;;;;;;;8.50;7.60;;;9.50;99.90;;;;;;5057139;28;20428;-66
2023/04/07 09:38:05;;;;;;;8.40;7.32;;;9.50;99.90;;;;;;5071255;28;20896;-67
2023/04/07 09:40:32;;;;;;;7.90;7.10;;;9.50;99.90;;;;;;5057031;28;20498;-67
2023/04/07 09:42:59;;;;;;;8.50;7.60;;;9.50;99.90;;;;;;5067067;28;20427;-68
2023/04/07 09:45:28;;;;;;;8.00;7.20;;;9.50;99.90;;;;;;5056068;28;20432;-66
2023/04/07 09:47:55;;;;;;;9.45;7.22;;;9.60;99.90;;;;;;5056321;28;20938;-69
2023/04/07 09:50:33;;;;;;;8.68;7.75;;;9.60;99.90;;;;;;5060175;28;20431;-67
2023/04/07 09:53:00;;;;;;;8.20;7.10;;;9.60;99.90;;;;;;5057757;28;20428;-68
2023/04/07 09:55:28;;;;;;;8.35;7.47;;;9.50;99.90;;;;;;5062209;28;20434;-68
2023/04/07 09:57:55;;;;;;;8.40;7.60;;;9.50;99.90;;;;;;5061085;28;20516;-68
2023/04/07 10:00:22;;;;;;;8.05;7.22;;;9.40;99.90;;;;;;5058971;28;20454;-68
2023/04/07 10:02:51;;;;;;;8.43;7.63;;;9.50;99.90;;;;;;5060566;28;20716;-67
2023/04/07 10:05:20;;;;;;;8.93;7.90;;;9.60;99.90;;;;;;5067918;28;20489;-68
2023/04/07 10:07:47;;;;;;;8.63;7.47;;;9.70;99.90;;;;;;5065857;28;20459;-68
2023/04/07 10:10:14;;;;;;;9.35;7.70;;;9.80;99.90;;;;;;5069561;28;20427;-68
2023/04/07 10:12:42;;;;;;;7.47;6.78;;;9.90;99.90;;;;;;5048854;28;20498;-71
2023/04/07 10:15:12;;;;;;;9.45;7.88;;;9.90;99.90;;;;;;5062224;28;20636;-71
2023/04/07 10:17:41;;;;;;;9.63;8.70;;;9.90;99.90;;;;;;5077569;28;20480;-70
2023/04/07 10:20:10;;;;;;;10.43;9.20;;;9.80;99.90;;;;;;5068086;28;20416;-69
2023/04/07 10:22:38;;;;;;;10.93;9.77;;;9.70;99.90;;;;;;5064616;28;20457;-71
2023/04/07 10:25:09;;;;;;;10.73;9.63;;;9.60;99.90;;;;;;5063854;28;20420;-70
2023/04/07 10:27:48;;;;;;;12.13;9.70;;;9.60;99.90;;;;;;5067279;28;20428;-71
2023/04/07 10:30:18;;;;;;;11.95;10.63;;;9.70;99.90;;;;;;5074407;28;20864;-71
2023/04/07 10:32:48;;;;;;;14.15;11.60;;;9.60;99.90;;;;;;5064776;28;20423;-71
2023/04/07 10:35:17;;;;;;;13.50;11.35;;;9.50;99.90;;;;;;5064343;28;20421;-75
2023/04/07 10:38:10;;;;;;;13.57;12.10;;;9.50;99.90;;;;;;5071007;28;20433;-70
2023/04/07 10:40:38;;;;;;;14.43;12.43;;;9.50;99.90;;;;;;5066697;28;20539;-71
2023/04/07 10:43:08;;;;;;;14.77;13.20;;;9.60;99.90;;;;;;5075863;28;20465;-71
2023/04/07 10:45:54;;;;;;;15.07;13.48;;;9.60;99.90;;;;;;5075929;28;20436;-70
2023/04/07 10:48:22;;;;;;;17.00;13.40;;;9.60;99.90;;;;;;5071490;28;20460;-72
2023/04/07 10:51:18;;;;;;;15.68;13.18;;;9.70;99.90;;;;;;5068406;28;20520;-71
2023/04/07 10:54:19;;;;;;;15.07;13.57;;;9.70;99.90;;;;;;5062974;28;20488;-69
2023/04/07 10:57:12;;;;;;;15.20;13.60;;;9.60;99.90;;;;;;5064385;28;20526;-68
2023/04/07 10:59:45;;;;;;;17.33;14.20;;;9.50;99.90;;;;;;5058233;28;20434;-70
2023/04/07 11:02:34;;;;;;;13.57;12.18;;;9.40;99.90;;;;;;5053716;28;20439;-69
2023/04/07 11:05:01;;;;;;;14.45;12.95;;;9.30;99.90;;;;;;5061203;28;20480;-70
2023/04/07 11:07:48;;;;;;;17.52;13.88;;;9.10;99.90;;;;;;5062879;28;20436;-72
2023/04/07 11:10:15;;;;;;;16.42;12.85;;;9.00;99.90;;;;;;5059444;28;20446;-71
2023/04/07 11:12:43;;;;;;;20.83;14.50;;;9.00;99.90;;;;;;5062041;28;20451;-72
2023/04/07 11:15:20;;;;;;;16.95;13.68;;;9.00;99.90;;;;;;5062078;28;20446;-73
2023/04/07 11:18:06;;;;;;;15.32;13.40;;;9.10;99.90;;;;;;5063584;28;20855;-72
2023/04/07 11:20:41;;;;;;;13.85;12.15;;;9.20;99.90;;;;;;5056385;28;20434;-69
2023/04/07 11:23:09;;;;;;;16.27;12.80;;;9.30;99.90;;;;;;5065903;28;20897;-70
2023/04/07 11:25:36;;;;;;;15.27;12.00;;;9.50;99.90;;;;;;5064116;28;20439;-69
2023/04/07 11:28:04;;;;;;;14.02;12.52;;;9.50;99.90;;;;;;5067231;28;20918;-70
2023/04/07 11:30:31;;;;;;;16.02;12.23;;;9.60;99.90;;;;;;5061416;28;20454;-71
2023/04/07 11:32:58;;;;;;;14.43;12.60;;;9.60;99.90;;;;;;5062985;28;20435;-70
2023/04/07 11:35:25;;;;;;;14.23;12.40;;;9.80;99.90;;;;;;5058907;28;20925;-69
2023/04/07 11:37:58;;;;;;;14.15;12.25;;;9.90;99.90;;;;;;5063972;28;20434;-71
2023/04/07 11:40:37;;;;;;;16.80;13.00;;;10.00;99.90;;;;;;5063272;28;20443;-71
2023/04/07 11:43:16;;;;;;;14.82;13.30;;;10.00;99.90;;;;;;5059447;28;20844;-70
2023/04/07 11:45:43;;;;;;;16.20;14.00;;;9.90;99.90;;;;;;5067730;28;20467;-72
2023/04/07 11:48:28;;;;;;;14.45;12.93;;;9.80;99.90;;;;;;5054292;28;20435;-72
2023/04/07 11:50:55;;;;;;;15.60;13.85;;;9.80;99.90;;;;;;5063138;28;20423;-72
2023/04/07 11:53:27;;;;;;;15.45;13.55;;;9.80;99.90;;;;;;5062214;28;20661;-73
2023/04/07 11:56:08;;;;;;;16.27;12.80;;;9.90;99.90;;;;;;5064798;28;20463;-71
2023/04/07 11:58:35;;;;;;;13.65;12.25;;;10.10;99.90;;;;;;5059836;28;20458;-70
2023/04/07 12:01:05;;;;;;;13.33;12.00;;;10.20;99.90;;;;;;5061370;28;20918;-70
2023/04/07 12:03:33;;;;;;;14.40;12.30;;;10.20;99.90;;;;;;5090560;22;20446;-69
2023/04/07 12:06:00;;;;;;;12.32;11.13;;;10.40;99.90;;;;;;5087545;28;20923;-68
2023/04/07 12:08:41;;;;;;;12.50;11.20;;;10.50;99.90;;;;;;5086014;28;20491;-67
2023/04/07 12:11:09;;;;;;;12.50;11.20;;;10.50;99.90;;;;;;5096318;28;20449;-67
2023/04/07 12:13:36;;;;;;;11.57;10.38;;;10.50;99.90;;;;;;5073961;28;20799;-68
2023/04/07 12:16:03;;;;;;;13.13;11.65;;;10.50;99.90;;;;;;5076222;28;20443;-64
2023/04/07 12:18:30;;;;;;;12.13;11.02;;;10.60;99.90;;;;;;5091010;28;20442;-64
2023/04/07 12:20:57;;;;;;;11.90;10.70;;;10.60;99.90;;;;;;5085166;28;20432;-66
2023/04/07 12:23:25;;;;;;;11.50;10.35;;;10.70;99.90;;;;;;5082165;28;20517;-66
2023/04/07 12:25:52;;;;;;;12.15;10.95;;;10.60;99.90;;;;;;5095600;28;20742;-67
2023/04/07 12:28:20;;;;;;;11.55;10.38;;;10.50;99.90;;;;;;5100215;28;20515;-67
2023/04/07 12:30:47;;;;;;;11.23;10.13;;;10.40;99.90;;;;;;5085051;28;20460;-67
2023/04/07 12:33:14;;;;;;;9.82;8.90;;;10.20;99.90;;;;;;5094368;28;20424;-67
2023/04/07 12:35:41;;;;;;;11.27;10.10;;;10.10;99.90;;;;;;5089972;28;20827;-67
2023/04/07 12:38:08;;;;;;;11.25;10.05;;;9.90;99.90;;;;;;5085669;28;20433;-66
2023/04/07 12:40:35;;;;;;;11.90;10.70;;;9.90;99.90;;;;;;5078383;28;20436;-66
2023/04/07 12:43:02;;;;;;;12.65;11.35;;;9.90;99.90;;;;;;5082701;28;20469;-67
2023/04/07 12:45:30;;;;;;;12.50;11.20;;;9.90;99.90;;;;;;5087676;28;20924;-67
2023/04/07 12:47:57;;;;;;;12.90;11.70;;;9.80;99.90;;;;;;5088844;28;20469;-67
2023/04/07 12:50:25;;;;;;;12.82;11.52;;;9.80;99.90;;;;;;5078658;28;20954;-67